createdAt,value
2022-12-11T00:02:22.412Z,100.00
2022-12-11T00:04:50.053Z,100.00
2022-12-11T00:07:17.645Z,100.00
2022-12-11T00:09:45.270Z,100.00
2022-12-11T00:12:12.870Z,100.00
2022-12-11T00:14:40.464Z,100.00
2022-12-11T00:17:08.139Z,100.00
2022-12-11T00:19:35.793Z,100.00
2022-12-11T00:22:03.477Z,100.00
2022-12-11T00:24:31.283Z,100.00
2022-12-11T00:26:59.032Z,100.00
2022-12-11T00:29:26.650Z,100.00
2022-12-11T00:31:54.326Z,100.00
2022-12-11T00:34:22.039Z,100.00
2022-12-11T00:36:49.626Z,100.00
2022-12-11T00:39:17.336Z,100.00
2022-12-11T00:41:45.125Z,100.00
2022-12-11T00:44:12.797Z,100.00
2022-12-11T00:46:40.436Z,100.00
2022-12-11T00:49:08.073Z,100.00
2022-12-11T00:51:35.759Z,100.00
2022-12-11T00:54:03.691Z,100.00
2022-12-11T00:56:34.226Z,100.00
2022-12-11T00:59:01.899Z,100.00
2022-12-11T01:01:29.729Z,100.00
2022-12-11T01:03:57.608Z,100.00
2022-12-11T01:06:28.070Z,100.00
2022-12-11T01:09:15.119Z,100.00
2022-12-11T01:11:43.526Z,100.00
2022-12-11T01:14:11.862Z,100.00
2022-12-11T01:16:39.523Z,100.00
2022-12-11T01:19:07.168Z,100.00
2022-12-11T01:21:34.852Z,100.00
2022-12-11T01:24:02.519Z,100.00
2022-12-11T01:26:30.822Z,100.00
2022-12-11T01:28:58.681Z,100.00
2022-12-11T01:31:26.397Z,100.00
2022-12-11T01:33:55.628Z,100.00
2022-12-11T01:36:23.786Z,100.00
2022-12-11T01:38:51.500Z,100.00
2022-12-11T01:41:19.261Z,100.00
2022-12-11T01:44:00.256Z,100.00
2022-12-11T01:46:29.515Z,100.00
2022-12-11T01:48:57.975Z,100.00
2022-12-11T01:51:26.783Z,100.00
2022-12-11T01:54:02.131Z,100.00
2022-12-11T01:56:33.422Z,100.00
2022-12-11T01:59:07.425Z,100.00
2022-12-11T02:01:47.476Z,100.00
2022-12-11T02:04:16.242Z,100.00
2022-12-11T02:06:50.809Z,100.00
2022-12-11T02:09:32.345Z,100.00
2022-12-11T02:12:04.929Z,100.00
2022-12-11T02:14:45.026Z,100.00
2022-12-11T02:17:16.648Z,100.00
2022-12-11T02:19:57.968Z,100.00
2022-12-11T02:22:43.667Z,100.00
2022-12-11T02:25:25.976Z,100.00
2022-12-11T02:28:16.112Z,100.00
2022-12-11T02:30:50.417Z,100.00
2022-12-11T02:33:26.304Z,100.00
2022-12-11T02:35:55.220Z,100.00
2022-12-11T02:38:31.567Z,100.00
2022-12-11T02:41:01.508Z,100.00
2022-12-11T02:43:32.704Z,100.00
2022-12-11T02:46:01.520Z,100.00
2022-12-11T02:48:30.696Z,100.00
2022-12-11T02:51:00.216Z,100.00
2022-12-11T02:53:31.472Z,100.00
2022-12-11T02:56:08.777Z,100.00
2022-12-11T02:58:43.021Z,100.00
2022-12-11T03:01:10.875Z,100.00
2022-12-11T03:03:38.787Z,100.00
2022-12-11T03:06:06.906Z,100.00
2022-12-11T03:08:34.574Z,100.00
2022-12-11T03:11:02.278Z,100.00
2022-12-11T03:13:30.057Z,100.00
2022-12-11T03:16:07.348Z,100.00
2022-12-11T03:18:44.477Z,100.00
2022-12-11T03:21:12.185Z,100.00
2022-12-11T03:24:15.252Z,100.00
2022-12-11T03:26:55.985Z,100.00
2022-12-11T03:29:30.391Z,100.00
2022-12-11T03:32:23.191Z,100.00
2022-12-11T03:35:10.653Z,100.00
2022-12-11T03:37:41.211Z,100.00
2022-12-11T03:40:17.681Z,100.00
2022-12-11T03:42:49.872Z,100.00
2022-12-11T03:45:19.896Z,100.00
2022-12-11T03:47:48.067Z,100.00
2022-12-11T03:50:18.364Z,100.00
2022-12-11T03:52:47.890Z,100.00
2022-12-11T03:55:18.784Z,100.00
2022-12-11T03:57:46.492Z,100.00
2022-12-11T04:00:18.695Z,100.00
2022-12-11T04:03:11.401Z,100.00
2022-12-11T04:05:48.610Z,100.00
2022-12-11T04:08:18.382Z,100.00
2022-12-11T04:10:46.218Z,100.00
2022-12-11T04:13:14.556Z,100.00
2022-12-11T04:15:42.348Z,100.00
2022-12-11T04:18:29.336Z,100.00
2022-12-11T04:21:15.760Z,100.00
2022-12-11T04:24:02.099Z,100.00
2022-12-11T04:26:29.871Z,100.00
2022-12-11T04:28:57.576Z,100.00
2022-12-11T04:31:25.287Z,100.00
2022-12-11T04:33:53.384Z,100.00
2022-12-11T04:36:21.517Z,100.00
2022-12-11T04:38:49.222Z,100.00
2022-12-11T04:41:17.598Z,100.00
2022-12-11T04:43:45.443Z,100.00
2022-12-11T04:46:20.132Z,100.00
2022-12-11T04:48:52.400Z,100.00
2022-12-11T04:51:23.380Z,100.00
2022-12-11T04:53:51.232Z,100.00
2022-12-11T04:56:19.568Z,100.00
2022-12-11T04:58:48.427Z,100.00
2022-12-11T05:01:18.851Z,100.00
2022-12-11T05:03:47.299Z,100.00
2022-12-11T05:06:15.667Z,100.00
2022-12-11T05:08:44.021Z,100.00
2022-12-11T05:11:14.077Z,100.00
2022-12-11T05:13:42.487Z,100.00
2022-12-11T05:16:12.683Z,100.00
2022-12-11T05:18:40.784Z,100.00
2022-12-11T05:21:11.303Z,100.00
2022-12-11T05:23:39.947Z,100.00
2022-12-11T05:26:11.714Z,99.93
2022-12-11T05:28:40.166Z,100.00
2022-12-11T05:31:14.076Z,100.00
2022-12-11T05:33:42.317Z,99.93
2022-12-11T05:36:16.114Z,100.00
2022-12-11T05:38:44.252Z,99.75
2022-12-11T05:41:14.469Z,99.52
2022-12-11T05:43:42.690Z,98.80
2022-12-11T05:46:17.985Z,99.95
2022-12-11T05:48:48.827Z,98.42
2022-12-11T05:51:17.884Z,98.06
2022-12-11T05:53:47.193Z,97.89
2022-12-11T05:56:35.110Z,97.89
2022-12-11T05:59:04.878Z,98.07
2022-12-11T06:01:36.055Z,98.36
2022-12-11T06:04:05.682Z,99.99
2022-12-11T06:06:34.223Z,100.00
2022-12-11T06:09:02.536Z,99.50
2022-12-11T06:11:32.432Z,99.23
2022-12-11T06:14:02.713Z,100.00
2022-12-11T06:16:30.537Z,99.79
2022-12-11T06:18:58.945Z,99.40
2022-12-11T06:21:31.758Z,99.16
2022-12-11T06:24:02.146Z,97.95
2022-12-11T06:26:30.333Z,96.54
2022-12-11T06:28:58.403Z,96.61
2022-12-11T06:31:26.128Z,97.54
2022-12-11T06:33:54.498Z,98.02
2022-12-11T06:36:23.716Z,97.98
2022-12-11T06:38:52.397Z,100.00
2022-12-11T06:41:20.106Z,98.93
2022-12-11T06:43:47.892Z,100.00
2022-12-11T06:46:18.742Z,98.31
2022-12-11T06:48:47.022Z,98.76
2022-12-11T06:51:20.764Z,96.95
2022-12-11T06:53:53.652Z,91.77
2022-12-11T06:56:22.044Z,94.12
2022-12-11T06:58:49.903Z,95.87
2022-12-11T07:01:23.699Z,93.65
2022-12-11T07:03:55.979Z,93.29
2022-12-11T07:06:25.186Z,98.09
2022-12-11T07:08:53.940Z,98.60
2022-12-11T07:11:22.338Z,95.17
2022-12-11T07:13:50.104Z,92.45
2022-12-11T07:16:18.511Z,94.40
2022-12-11T07:18:50.931Z,93.21
2022-12-11T07:21:20.233Z,91.53
2022-12-11T07:23:49.534Z,92.88
2022-12-11T07:26:19.632Z,95.03
2022-12-11T07:28:47.898Z,93.58
2022-12-11T07:31:24.455Z,95.45
2022-12-11T07:33:56.497Z,98.95
2022-12-11T07:36:25.001Z,97.53
2022-12-11T07:38:53.531Z,98.55
2022-12-11T07:41:22.411Z,100.00
2022-12-11T07:43:54.997Z,99.29
2022-12-11T07:46:25.440Z,98.51
2022-12-11T07:48:53.288Z,97.94
2022-12-11T07:51:29.776Z,98.15
2022-12-11T07:54:02.127Z,97.64
2022-12-11T07:56:30.778Z,97.39
2022-12-11T07:59:04.445Z,97.29
2022-12-11T08:01:36.642Z,99.61
2022-12-11T08:04:10.511Z,100.00
2022-12-11T08:06:40.266Z,98.83
2022-12-11T08:09:14.691Z,98.62
2022-12-11T08:11:48.979Z,98.44
2022-12-11T08:14:16.830Z,97.54
2022-12-11T08:16:44.927Z,98.27
2022-12-11T08:19:13.206Z,99.60
2022-12-11T08:21:41.568Z,100.00
2022-12-11T08:24:10.205Z,100.00
2022-12-11T08:26:37.877Z,99.19
2022-12-11T08:29:05.619Z,99.24
2022-12-11T08:31:33.853Z,99.10
2022-12-11T08:34:01.970Z,97.68
2022-12-11T08:36:29.649Z,95.35
2022-12-11T08:38:57.809Z,95.71
2022-12-11T08:41:28.290Z,93.42
2022-12-11T08:43:57.770Z,94.97
2022-12-11T08:46:27.516Z,94.95
2022-12-11T08:48:55.983Z,92.97
2022-12-11T08:51:26.318Z,91.18
2022-12-11T08:53:58.669Z,91.38
2022-12-11T08:56:28.428Z,90.96
2022-12-11T08:58:56.233Z,92.09
2022-12-11T09:01:26.835Z,88.05
2022-12-11T09:03:56.627Z,89.48
2022-12-11T09:06:27.512Z,87.59
2022-12-11T09:08:56.267Z,88.75
2022-12-11T09:11:28.720Z,87.16
2022-12-11T09:13:56.436Z,87.98
2022-12-11T09:16:25.867Z,89.59
2022-12-11T09:18:55.571Z,88.23
2022-12-11T09:21:29.199Z,89.14
2022-12-11T09:23:59.973Z,88.01
2022-12-11T09:26:29.213Z,88.75
2022-12-11T09:28:57.726Z,90.07
2022-12-11T09:31:31.120Z,91.22
2022-12-11T09:34:02.196Z,92.32
2022-12-11T09:36:30.320Z,90.36
2022-12-11T09:39:02.474Z,90.52
2022-12-11T09:41:36.746Z,92.25
2022-12-11T09:44:27.701Z,91.57
2022-12-11T09:46:56.831Z,91.02
2022-12-11T09:49:32.328Z,92.50
2022-12-11T09:52:34.696Z,90.41
2022-12-11T09:55:24.708Z,93.07
2022-12-11T09:57:52.338Z,90.68
2022-12-11T10:00:32.606Z,91.57
2022-12-11T10:03:09.119Z,90.72
2022-12-11T10:05:52.668Z,90.11
2022-12-11T10:08:39.290Z,90.87
2022-12-11T10:11:33.241Z,91.58
2022-12-11T10:14:17.452Z,92.75
2022-12-11T10:16:57.793Z,92.94
2022-12-11T10:19:29.192Z,93.26
2022-12-11T10:21:59.704Z,94.82
2022-12-11T10:25:09.956Z,93.65
2022-12-11T10:27:33.287Z,93.43
2022-12-11T10:30:23.352Z,94.83
2022-12-11T10:33:23.293Z,95.86
2022-12-11T10:35:53.944Z,95.74
2022-12-11T10:38:45.182Z,95.45
2022-12-11T10:41:24.682Z,96.59
2022-12-11T10:43:54.161Z,95.63
2022-12-11T10:46:28.367Z,95.27
2022-12-11T10:48:58.804Z,96.40
2022-12-11T10:51:35.393Z,96.25
2022-12-11T10:54:38.350Z,96.75
2022-12-11T10:57:09.203Z,96.47
2022-12-11T10:59:49.999Z,94.69
2022-12-11T11:02:26.661Z,93.90
2022-12-11T11:05:04.067Z,92.93
2022-12-11T11:07:35.358Z,92.38
2022-12-11T11:10:05.468Z,94.56
2022-12-11T11:12:48.210Z,93.19
2022-12-11T11:15:22.776Z,94.53
2022-12-11T11:18:01.245Z,93.95
2022-12-11T11:20:34.362Z,93.20
2022-12-11T11:23:14.246Z,91.26
2022-12-11T11:25:56.292Z,90.28
2022-12-11T11:28:34.302Z,92.95
2022-12-11T11:31:16.311Z,92.57
2022-12-11T11:33:57.835Z,93.52
2022-12-11T11:36:28.869Z,94.21
2022-12-11T11:39:02.648Z,93.84
2022-12-11T11:41:44.575Z,91.00
2022-12-11T11:44:19.579Z,91.47
2022-12-11T11:46:59.988Z,89.96
2022-12-11T11:49:46.273Z,90.68
2022-12-11T11:52:29.549Z,89.19
2022-12-11T11:55:39.355Z,88.90
2022-12-11T11:58:17.598Z,87.54
2022-12-11T12:00:45.734Z,88.86
2022-12-11T12:03:16.700Z,86.35
2022-12-11T12:05:50.528Z,87.19
2022-12-11T12:08:53.503Z,88.23
2022-12-11T12:11:49.719Z,90.01
2022-12-11T12:17:56.125Z,90.04
2022-12-11T12:20:35.916Z,92.71
2022-12-11T12:23:06.619Z,92.16
2022-12-11T12:26:02.046Z,92.44
2022-12-11T12:28:41.700Z,92.68
2022-12-11T12:31:30.648Z,91.89
2022-12-11T12:34:31.367Z,92.45
2022-12-11T12:37:08.294Z,92.92
2022-12-11T12:39:38.988Z,92.75
2022-12-11T12:42:11.607Z,93.05
2022-12-11T12:44:52.296Z,92.88
2022-12-11T12:47:20.909Z,92.45
2022-12-11T12:49:54.567Z,93.03
2022-12-11T12:52:31.135Z,94.03
2022-12-11T12:55:14.589Z,93.25
2022-12-11T12:57:55.133Z,91.91
2022-12-11T13:00:28.594Z,93.24
2022-12-11T13:02:56.879Z,90.77
2022-12-11T13:05:30.623Z,91.88
2022-12-11T13:08:02.835Z,92.25
2022-12-11T13:10:30.573Z,91.85
2022-12-11T13:12:59.819Z,91.91
2022-12-11T13:15:43.855Z,91.78
2022-12-11T13:18:35.028Z,93.93
2022-12-11T13:21:24.287Z,92.31
2022-12-11T13:23:52.260Z,94.83
2022-12-11T13:26:45.824Z,92.81
2022-12-11T13:29:53.087Z,94.17
2022-12-11T13:32:30.217Z,92.82
2022-12-11T13:35:00.301Z,95.53
2022-12-11T13:37:36.039Z,96.21
2022-12-11T13:40:08.527Z,95.52
2022-12-11T13:42:50.536Z,96.41
2022-12-11T13:45:23.292Z,96.36
2022-12-11T13:47:51.380Z,96.12
2022-12-11T13:50:26.416Z,96.58
2022-12-11T13:52:59.290Z,96.03
2022-12-11T13:55:33.625Z,98.61
2022-12-11T13:58:01.842Z,97.17
2022-12-11T14:00:32.976Z,98.66
2022-12-11T14:03:07.552Z,96.05
2022-12-11T14:05:35.675Z,97.61
2022-12-11T14:08:11.477Z,99.53
2022-12-11T14:10:40.855Z,99.61
2022-12-11T14:13:22.381Z,99.02
2022-12-11T14:15:50.823Z,98.56
2022-12-11T14:18:23.539Z,98.64
2022-12-11T14:20:56.604Z,96.89
2022-12-11T14:23:27.599Z,98.18
2022-12-11T14:26:03.065Z,95.86
2022-12-11T14:28:41.118Z,96.79
2022-12-11T14:31:12.413Z,98.33
2022-12-11T14:33:48.824Z,98.34
2022-12-11T14:36:18.376Z,98.94
2022-12-11T14:38:53.373Z,97.89
2022-12-11T14:41:32.400Z,99.18
2022-12-11T14:44:04.553Z,98.56
2022-12-11T14:46:42.574Z,98.57
2022-12-11T14:49:21.243Z,100.00
2022-12-11T14:51:50.758Z,100.00
2022-12-11T14:54:30.016Z,99.41
2022-12-11T14:56:59.385Z,99.44
2022-12-11T14:59:32.194Z,98.83
2022-12-11T15:02:03.261Z,98.88
2022-12-11T15:04:33.584Z,99.41
2022-12-11T15:07:01.503Z,99.30
2022-12-11T15:09:38.274Z,99.48
2022-12-11T15:12:13.663Z,99.84
2022-12-11T15:14:52.143Z,100.00
2022-12-11T15:17:21.065Z,99.78
2022-12-11T15:19:51.827Z,99.01
2022-12-11T15:22:26.282Z,100.00
2022-12-11T15:24:55.204Z,99.51
2022-12-11T15:27:36.967Z,99.31
2022-12-11T15:30:20.243Z,99.72
2022-12-11T15:32:48.016Z,100.00
2022-12-11T15:35:25.475Z,100.00
2022-12-11T15:37:55.405Z,100.00
2022-12-11T15:40:24.514Z,100.00
2022-12-11T15:42:52.623Z,100.00
2022-12-11T15:45:23.564Z,100.00
2022-12-11T15:47:52.292Z,100.00
2022-12-11T15:50:25.997Z,99.82
2022-12-11T15:52:55.212Z,100.00
2022-12-11T15:55:26.735Z,100.00
2022-12-11T15:57:58.170Z,99.78
2022-12-11T16:00:28.400Z,100.00
2022-12-11T16:02:57.831Z,100.00
2022-12-11T16:05:27.113Z,100.00
2022-12-11T16:07:59.722Z,100.00
2022-12-11T16:10:28.197Z,100.00
2022-12-11T16:12:59.680Z,100.00
2022-12-11T16:15:27.773Z,99.30
2022-12-11T16:18:10.038Z,98.47
2022-12-11T16:20:40.209Z,100.00
2022-12-11T16:23:09.177Z,100.00
2022-12-11T16:25:39.378Z,99.81
2022-12-11T16:28:08.587Z,99.95
2022-12-11T16:30:37.945Z,99.13
2022-12-11T16:33:12.161Z,98.37
2022-12-11T16:35:42.133Z,99.00
2022-12-11T16:38:14.195Z,98.73
2022-12-11T16:40:42.112Z,99.01
2022-12-11T16:43:11.023Z,99.07
2022-12-11T16:45:38.848Z,99.43
2022-12-11T16:48:06.814Z,98.10
2022-12-11T16:50:36.283Z,97.97
2022-12-11T16:53:04.214Z,99.03
2022-12-11T16:55:31.995Z,98.58
2022-12-11T16:57:59.921Z,99.59
2022-12-11T17:00:27.967Z,98.20
2022-12-11T17:02:55.937Z,98.91
2022-12-11T17:05:25.045Z,100.00
2022-12-11T17:07:53.031Z,99.45
2022-12-11T17:10:21.753Z,98.98
2022-12-11T17:12:49.822Z,99.81
2022-12-11T17:15:17.706Z,99.96
2022-12-11T17:17:45.548Z,98.96
2022-12-11T17:20:13.611Z,99.00
2022-12-11T17:22:41.863Z,99.05
2022-12-11T17:25:10.155Z,99.73
2022-12-11T17:27:38.856Z,100.00
2022-12-11T17:30:08.334Z,100.00
2022-12-11T17:32:36.643Z,100.00
2022-12-11T17:35:04.693Z,100.00
2022-12-11T17:37:32.866Z,100.00
2022-12-11T17:40:00.927Z,100.00
2022-12-11T17:42:28.844Z,100.00
2022-12-11T17:44:57.560Z,100.00
2022-12-11T17:47:25.324Z,100.00
2022-12-11T17:49:53.294Z,100.00
2022-12-11T17:52:21.188Z,100.00
2022-12-11T17:54:49.390Z,100.00
2022-12-11T17:57:17.461Z,100.00
2022-12-11T17:59:45.415Z,100.00
2022-12-11T18:02:13.408Z,100.00
2022-12-11T18:04:41.550Z,100.00
2022-12-11T18:07:09.325Z,100.00
2022-12-11T18:09:40.587Z,100.00
2022-12-11T18:12:09.674Z,100.00
2022-12-11T18:14:37.788Z,100.00
2022-12-11T18:17:06.700Z,100.00
2022-12-11T18:19:34.608Z,100.00
2022-12-11T18:22:02.481Z,100.00
2022-12-11T18:24:31.861Z,99.70
2022-12-11T18:26:59.887Z,100.00
2022-12-11T18:29:27.897Z,99.20
2022-12-11T18:31:55.895Z,99.14
2022-12-11T18:34:23.816Z,98.96
2022-12-11T18:36:51.972Z,99.14
2022-12-11T18:39:19.819Z,99.47
2022-12-11T18:42:03.493Z,99.04
2022-12-11T18:44:35.415Z,99.42
2022-12-11T18:47:03.368Z,99.46
2022-12-11T18:49:31.256Z,99.54
2022-12-11T18:51:59.167Z,99.58
2022-12-11T18:54:26.943Z,99.60
2022-12-11T18:56:54.770Z,100.00
2022-12-11T18:59:22.558Z,99.21
2022-12-11T19:01:50.439Z,99.88
2022-12-11T19:04:18.279Z,99.93
2022-12-11T19:06:46.250Z,99.14
2022-12-11T19:09:14.197Z,99.54
2022-12-11T19:11:42.552Z,99.92
2022-12-11T19:14:11.173Z,99.41
2022-12-11T19:16:42.926Z,100.00
2022-12-11T19:19:21.106Z,100.00
2022-12-11T19:21:50.349Z,100.00
2022-12-11T19:24:21.551Z,100.00
2022-12-11T19:26:49.676Z,99.88
2022-12-11T19:29:32.632Z,99.41
2022-12-11T19:32:02.630Z,99.04
2022-12-11T19:34:30.757Z,99.72
2022-12-11T19:36:58.918Z,99.98
2022-12-11T19:39:26.905Z,100.00
2022-12-11T19:41:54.713Z,100.00
2022-12-11T19:44:22.533Z,100.00
2022-12-11T19:46:51.583Z,100.00
2022-12-11T19:49:20.161Z,100.00
2022-12-11T19:51:48.216Z,100.00
2022-12-11T19:54:18.352Z,100.00
2022-12-11T19:56:46.312Z,100.00
2022-12-11T19:59:17.047Z,100.00
2022-12-11T20:01:48.250Z,99.88
2022-12-11T20:04:18.031Z,100.00
2022-12-11T20:06:47.168Z,100.00
2022-12-11T20:09:15.637Z,100.00
2022-12-11T20:11:45.008Z,99.81
2022-12-11T20:14:24.008Z,99.91
2022-12-11T20:17:10.537Z,100.00
2022-12-11T20:19:40.328Z,99.22
2022-12-11T20:22:09.394Z,99.63
2022-12-11T20:24:38.066Z,99.62
2022-12-11T20:27:06.104Z,100.00
2022-12-11T20:29:34.424Z,99.75
2022-12-11T20:32:02.503Z,100.00
2022-12-11T20:34:30.374Z,100.00
2022-12-11T20:36:58.230Z,99.67
2022-12-11T20:39:29.049Z,99.95
2022-12-11T20:41:59.708Z,99.92
2022-12-11T20:44:27.615Z,99.03
2022-12-11T20:46:56.594Z,98.60
2022-12-11T20:49:24.739Z,99.41
2022-12-11T20:51:52.986Z,99.48
2022-12-11T20:54:21.032Z,99.33
2022-12-11T20:56:49.020Z,99.69
2022-12-11T20:59:18.395Z,100.00
2022-12-11T21:01:46.542Z,99.77
2022-12-11T21:04:14.524Z,99.79
2022-12-11T21:06:42.566Z,99.80
2022-12-11T21:09:17.973Z,100.00
2022-12-11T21:11:46.169Z,100.00
2022-12-11T21:14:15.427Z,100.00
2022-12-11T21:20:21.400Z,100.00
2022-12-11T21:22:49.102Z,100.00
2022-12-11T21:25:16.900Z,99.60
2022-12-11T21:27:44.623Z,99.59
2022-12-11T21:30:12.959Z,99.46
2022-12-11T21:32:42.661Z,99.95
2022-12-11T21:35:11.241Z,100.00
2022-12-11T21:37:41.917Z,100.00
2022-12-11T21:40:10.160Z,100.00
2022-12-11T21:42:37.981Z,99.98
2022-12-11T21:47:54.059Z,100.00
2022-12-11T21:50:22.461Z,100.00
2022-12-11T21:52:50.786Z,100.00
2022-12-11T21:55:19.457Z,100.00
2022-12-11T21:57:47.134Z,100.00
2022-12-11T22:00:16.108Z,100.00
2022-12-11T22:02:43.977Z,100.00
2022-12-11T22:05:11.840Z,100.00
2022-12-11T22:07:39.826Z,100.00
2022-12-11T22:10:08.018Z,99.93
2022-12-11T22:12:35.758Z,100.00
2022-12-11T22:15:03.954Z,100.00
2022-12-11T22:17:32.361Z,100.00
2022-12-11T22:20:00.141Z,100.00
2022-12-11T22:22:27.957Z,100.00
2022-12-11T22:24:55.687Z,100.00
2022-12-11T22:27:24.011Z,100.00
2022-12-11T22:29:51.880Z,99.70
2022-12-11T22:32:19.574Z,99.79
2022-12-11T22:34:47.182Z,100.00
2022-12-11T22:37:14.901Z,99.77
2022-12-11T22:39:42.558Z,100.00
2022-12-11T22:42:10.302Z,100.00
2022-12-11T22:44:38.053Z,100.00
2022-12-11T22:47:05.724Z,100.00
2022-12-11T22:49:33.695Z,100.00
2022-12-11T22:52:01.444Z,100.00
2022-12-11T22:54:29.362Z,100.00
2022-12-11T22:56:59.205Z,100.00
2022-12-11T22:59:26.972Z,100.00
2022-12-11T23:01:54.673Z,99.55
2022-12-11T23:04:22.384Z,99.70
2022-12-11T23:06:50.206Z,99.46
2022-12-11T23:09:18.201Z,98.24
2022-12-11T23:11:45.901Z,98.38
2022-12-11T23:14:17.796Z,99.28
2022-12-11T23:16:45.670Z,98.08
2022-12-11T23:19:13.454Z,97.89
2022-12-11T23:21:41.566Z,98.86
2022-12-11T23:24:10.317Z,99.00
2022-12-11T23:26:38.156Z,98.20
2022-12-11T23:29:06.824Z,98.70
2022-12-11T23:31:34.873Z,98.42
2022-12-11T23:34:02.645Z,98.64
2022-12-11T23:36:30.780Z,98.71
2022-12-11T23:38:58.552Z,98.41
2022-12-11T23:41:26.286Z,99.73
2022-12-11T23:43:53.970Z,99.09
2022-12-11T23:46:24.041Z,98.81
2022-12-11T23:48:53.212Z,99.39
2022-12-11T23:51:23.499Z,98.14
2022-12-11T23:53:51.877Z,97.27
2022-12-11T23:56:22.810Z,96.99
2022-12-11T23:58:51.305Z,97.20
